createdAt,value
2019-02-21T00:01:40.612Z,88.41
2019-02-21T00:04:47.478Z,87.82
2019-02-21T00:07:54.090Z,86.97
2019-02-21T00:11:00.618Z,87.38
2019-02-21T00:14:06.890Z,88.23
2019-02-21T00:17:13.953Z,87.86
2019-02-21T00:20:20.504Z,87.78
2019-02-21T00:23:27.197Z,87.67
2019-02-21T00:26:34.924Z,87.86
2019-02-21T00:29:41.570Z,87.76
2019-02-21T00:32:48.339Z,87.70
2019-02-21T00:35:55.092Z,87.88
2019-02-21T00:39:02.177Z,88.02
2019-02-21T00:42:10.165Z,88.14
2019-02-21T00:45:16.508Z,88.74
2019-02-21T00:48:22.854Z,89.08
2019-02-21T00:51:29.836Z,89.18
2019-02-21T00:54:36.419Z,88.81
2019-02-21T00:57:42.945Z,88.92
2019-02-21T01:00:49.595Z,88.84
2019-02-21T01:03:56.199Z,88.97
2019-02-21T01:07:03.101Z,88.60
2019-02-21T01:10:09.626Z,88.49
2019-02-21T01:13:16.567Z,89.02
2019-02-21T01:16:22.867Z,88.57
2019-02-21T01:19:29.277Z,88.29
2019-02-21T01:22:35.692Z,88.17
2019-02-21T01:25:42.152Z,88.32
2019-02-21T01:28:48.925Z,87.98
2019-02-21T01:31:55.228Z,87.80
2019-02-21T01:35:01.640Z,87.98
2019-02-21T01:38:08.098Z,88.05
2019-02-21T01:41:14.861Z,88.78
2019-02-21T01:44:21.144Z,89.09
2019-02-21T01:47:28.158Z,89.60
2019-02-21T01:50:34.484Z,89.12
2019-02-21T01:53:41.024Z,88.91
2019-02-21T01:56:47.558Z,88.98
2019-02-21T01:59:54.167Z,89.10
2019-02-21T02:03:00.782Z,89.25
2019-02-21T02:06:07.242Z,89.37
2019-02-21T02:09:14.072Z,88.77
2019-02-21T02:12:20.982Z,88.37
2019-02-21T02:15:27.461Z,88.18
2019-02-21T02:18:34.142Z,88.12
2019-02-21T02:21:40.492Z,88.37
2019-02-21T02:24:46.812Z,88.36
2019-02-21T02:27:53.790Z,88.15
2019-02-21T02:31:00.969Z,88.46
2019-02-21T02:34:07.174Z,88.22
2019-02-21T02:37:13.534Z,88.82
2019-02-21T02:40:19.957Z,88.54
2019-02-21T02:43:26.533Z,88.90
2019-02-21T02:46:33.413Z,88.92
2019-02-21T02:49:40.494Z,88.68
2019-02-21T02:52:47.164Z,88.52
2019-02-21T02:55:53.784Z,88.84
2019-02-21T02:59:03.298Z,88.47
2019-02-21T03:02:09.975Z,88.36
2019-02-21T03:05:16.629Z,88.43
2019-02-21T03:08:23.303Z,87.86
2019-02-21T03:11:29.734Z,87.86
2019-02-21T03:14:37.828Z,89.12
2019-02-21T03:17:44.155Z,89.43
2019-02-21T03:20:52.447Z,89.72
2019-02-21T03:23:58.904Z,89.37
2019-02-21T03:27:05.461Z,88.50
2019-02-21T03:30:12.956Z,88.10
2019-02-21T03:33:19.798Z,88.61
2019-02-21T03:36:26.379Z,88.61
2019-02-21T03:39:33.177Z,89.07
2019-02-21T03:42:39.826Z,89.18
2019-02-21T03:45:46.265Z,89.23
2019-02-21T03:48:52.827Z,89.58
2019-02-21T03:51:59.264Z,89.53
2019-02-21T03:55:05.730Z,89.48
2019-02-21T03:58:12.554Z,89.28
2019-02-21T04:01:18.999Z,89.93
2019-02-21T04:04:25.636Z,89.66
2019-02-21T04:07:32.255Z,89.41
2019-02-21T04:10:39.122Z,89.46
2019-02-21T04:13:45.903Z,89.10
2019-02-21T04:16:52.568Z,88.55
2019-02-21T04:19:58.899Z,88.21
2019-02-21T04:23:05.058Z,88.06
2019-02-21T04:26:11.702Z,87.53
2019-02-21T04:29:18.288Z,87.06
2019-02-21T04:32:26.720Z,86.93
2019-02-21T04:35:33.413Z,86.89
2019-02-21T04:38:40.111Z,87.13
2019-02-21T04:41:46.851Z,86.85
2019-02-21T04:44:53.434Z,87.09
2019-02-21T04:48:00.061Z,87.30
2019-02-21T04:51:06.138Z,87.34
2019-02-21T04:54:12.710Z,86.99
2019-02-21T04:57:19.297Z,86.72
2019-02-21T05:00:25.629Z,86.47
2019-02-21T05:03:32.188Z,86.59
2019-02-21T05:06:39.059Z,87.48
2019-02-21T05:09:56.989Z,87.15
2019-02-21T05:12:54.944Z,86.96
2019-02-21T05:16:01.542Z,86.97
2019-02-21T05:19:08.418Z,87.24
2019-02-21T05:22:15.268Z,87.06
2019-02-21T05:25:22.097Z,86.81
2019-02-21T05:28:32.623Z,86.88
2019-02-21T05:31:56.888Z,86.15
2019-02-21T05:35:22.087Z,86.92
2019-02-21T05:38:50.587Z,86.83
2019-02-21T05:42:18.949Z,86.72
2019-02-21T05:45:38.108Z,87.14
2019-02-21T05:49:06.779Z,87.11
2019-02-21T05:52:32.796Z,87.65
2019-02-21T05:55:53.434Z,87.79
2019-02-21T05:59:16.800Z,87.46
2019-02-21T06:02:53.089Z,88.08
2019-02-21T06:06:04.233Z,87.82
2019-02-21T06:09:35.632Z,88.46
2019-02-21T06:13:00.255Z,88.31
2019-02-21T06:16:15.875Z,88.40
2019-02-21T06:20:00.533Z,88.07
2019-02-21T06:23:25.171Z,87.93
2019-02-21T06:27:01.012Z,88.27
2019-02-21T06:30:21.745Z,88.37
2019-02-21T06:33:28.647Z,88.10
2019-02-21T06:36:35.729Z,88.15
2019-02-21T06:39:42.266Z,88.25
2019-02-21T06:42:48.944Z,88.35
2019-02-21T06:45:57.827Z,87.76
2019-02-21T06:49:04.262Z,88.65
2019-02-21T06:52:10.599Z,88.51
2019-02-21T06:55:16.899Z,87.70
2019-02-21T06:58:23.697Z,88.04
2019-02-21T07:01:31.312Z,87.80
2019-02-21T07:04:38.070Z,87.90
2019-02-21T07:07:44.403Z,87.58
2019-02-21T07:10:51.133Z,87.52
2019-02-21T07:13:57.496Z,88.11
2019-02-21T07:17:03.991Z,87.83
2019-02-21T07:20:12.911Z,88.02
2019-02-21T07:23:18.819Z,87.61
2019-02-21T07:26:25.242Z,88.71
2019-02-21T07:29:32.018Z,88.33
2019-02-21T07:32:38.486Z,88.25
2019-02-21T07:35:44.887Z,87.94
2019-02-21T07:38:51.538Z,87.49
2019-02-21T07:41:58.035Z,87.39
2019-02-21T07:45:04.742Z,87.01
2019-02-21T07:48:11.919Z,87.80
2019-02-21T07:51:18.486Z,87.23
2019-02-21T07:54:24.837Z,87.37
2019-02-21T07:57:31.065Z,86.34
2019-02-21T08:00:37.712Z,84.73
2019-02-21T08:03:48.338Z,82.74
2019-02-21T08:06:55.671Z,81.10
2019-02-21T08:10:01.871Z,79.05
2019-02-21T08:13:08.752Z,78.78
2019-02-21T08:16:15.618Z,78.38
2019-02-21T08:19:22.301Z,77.70
2019-02-21T08:22:28.557Z,77.81
2019-02-21T08:25:35.128Z,77.08
2019-02-21T08:28:41.975Z,77.56
2019-02-21T08:31:48.871Z,77.63
2019-02-21T08:34:55.374Z,77.26
2019-02-21T08:38:02.420Z,77.15
2019-02-21T08:41:09.138Z,76.44
2019-02-21T08:44:16.102Z,76.69
2019-02-21T08:47:22.319Z,76.50
2019-02-21T08:50:29.520Z,75.91
2019-02-21T08:53:36.445Z,75.69
2019-02-21T08:56:42.928Z,75.83
2019-02-21T08:59:49.504Z,75.92
2019-02-21T09:02:55.930Z,75.41
2019-02-21T09:06:02.609Z,75.06
2019-02-21T09:09:09.586Z,74.46
2019-02-21T09:12:16.906Z,75.47
2019-02-21T09:15:23.375Z,75.10
2019-02-21T09:18:30.157Z,75.29
2019-02-21T09:21:37.322Z,75.56
2019-02-21T09:24:44.246Z,75.90
2019-02-21T09:27:50.841Z,76.07
2019-02-21T09:30:58.164Z,76.04
2019-02-21T09:34:04.678Z,76.36
2019-02-21T09:37:11.127Z,76.33
2019-02-21T09:40:17.530Z,75.63
2019-02-21T09:43:24.103Z,75.48
2019-02-21T09:46:31.467Z,75.61
2019-02-21T09:49:38.212Z,75.57
2019-02-21T09:52:45.181Z,75.38
2019-02-21T09:55:52.236Z,74.73
2019-02-21T09:58:59.460Z,74.12
2019-02-21T10:02:05.846Z,74.16
2019-02-21T10:05:12.260Z,75.40
2019-02-21T10:08:21.182Z,75.33
2019-02-21T10:11:28.329Z,75.41
2019-02-21T10:14:34.792Z,74.17
2019-02-21T10:17:41.366Z,73.48
2019-02-21T10:20:47.843Z,74.89
2019-02-21T10:23:56.581Z,74.56
2019-02-21T10:27:02.427Z,73.89
2019-02-21T10:30:13.271Z,74.32
2019-02-21T10:33:19.420Z,74.96
2019-02-21T10:36:26.510Z,75.05
2019-02-21T10:39:33.539Z,74.18
2019-02-21T10:42:40.423Z,73.56
2019-02-21T10:45:48.254Z,73.42
2019-02-21T10:48:55.075Z,72.73
2019-02-21T10:52:01.519Z,73.06
2019-02-21T10:55:09.925Z,73.07
2019-02-21T10:58:18.465Z,72.16
2019-02-21T11:01:25.572Z,71.82
2019-02-21T11:04:32.282Z,71.28
2019-02-21T11:07:38.934Z,70.13
2019-02-21T11:10:45.358Z,69.84
2019-02-21T11:13:52.887Z,69.79
2019-02-21T11:16:59.519Z,69.88
2019-02-21T11:20:06.986Z,69.60
2019-02-21T11:23:13.526Z,69.77
2019-02-21T11:26:20.284Z,69.49
2019-02-21T11:29:27.102Z,69.63
2019-02-21T11:32:33.731Z,69.25
2019-02-21T11:35:40.498Z,68.56
2019-02-21T11:38:47.316Z,67.90
2019-02-21T11:41:53.966Z,68.18
2019-02-21T11:45:00.624Z,67.49
2019-02-21T11:48:09.180Z,66.67
2019-02-21T11:51:16.332Z,65.58
2019-02-21T11:54:26.915Z,65.23
2019-02-21T11:57:31.536Z,65.47
2019-02-21T12:00:38.432Z,63.89
2019-02-21T12:03:45.272Z,63.72
2019-02-21T12:06:52.201Z,64.76
2019-02-21T12:09:58.863Z,62.76
2019-02-21T12:13:05.928Z,64.08
2019-02-21T12:16:12.444Z,64.63
2019-02-21T12:19:19.563Z,64.18
2019-02-21T12:22:26.387Z,63.67
2019-02-21T12:25:33.136Z,63.23
2019-02-21T12:28:39.782Z,62.28
2019-02-21T12:31:46.613Z,61.25
2019-02-21T12:34:53.697Z,61.45
2019-02-21T12:38:00.249Z,61.04
2019-02-21T12:41:07.153Z,61.71
2019-02-21T12:44:13.667Z,62.09
2019-02-21T12:47:20.378Z,63.32
2019-02-21T12:50:26.919Z,63.05
2019-02-21T12:53:35.182Z,63.97
2019-02-21T12:56:42.160Z,64.37
2019-02-21T12:59:48.931Z,64.15
2019-02-21T13:02:55.675Z,65.30
2019-02-21T13:06:02.683Z,65.50
2019-02-21T13:09:09.722Z,65.30
2019-02-21T13:12:18.955Z,64.77
2019-02-21T13:15:25.474Z,64.92
2019-02-21T13:18:31.855Z,66.52
2019-02-21T13:21:39.527Z,65.43
2019-02-21T13:24:46.682Z,65.24
2019-02-21T13:27:53.467Z,64.43
2019-02-21T13:31:00.700Z,64.17
2019-02-21T13:34:07.340Z,64.30
2019-02-21T13:37:14.221Z,64.46
2019-02-21T13:40:21.499Z,65.04
2019-02-21T13:43:29.135Z,65.30
2019-02-21T13:46:40.909Z,65.10
2019-02-21T13:49:46.253Z,65.36
2019-02-21T13:52:54.846Z,64.90
2019-02-21T13:56:01.719Z,64.64
2019-02-21T13:59:08.715Z,64.66
2019-02-21T14:02:15.735Z,64.42
2019-02-21T14:05:22.392Z,64.56
2019-02-21T14:08:30.631Z,64.04
2019-02-21T14:11:38.932Z,64.26
2019-02-21T14:14:45.340Z,64.46
2019-02-21T14:17:52.166Z,65.94
2019-02-21T14:20:59.463Z,66.33
2019-02-21T14:24:06.285Z,66.36
2019-02-21T14:27:13.455Z,66.09
2019-02-21T14:30:20.441Z,66.19
2019-02-21T14:33:28.626Z,66.94
2019-02-21T14:36:35.968Z,65.95
2019-02-21T14:39:42.378Z,66.59
2019-02-21T14:42:49.007Z,66.92
2019-02-21T14:45:59.766Z,65.73
2019-02-21T14:49:06.691Z,65.46
2019-02-21T14:52:14.302Z,66.00
2019-02-21T14:55:20.845Z,66.32
2019-02-21T14:58:27.955Z,66.73
2019-02-21T15:01:35.804Z,66.34
2019-02-21T15:04:42.969Z,66.67
2019-02-21T15:07:49.506Z,66.62
2019-02-21T15:10:59.735Z,67.32
2019-02-21T15:14:07.716Z,67.82
2019-02-21T15:17:15.198Z,68.41
2019-02-21T15:20:21.967Z,67.90
2019-02-21T15:23:28.873Z,67.88
2019-02-21T15:26:36.603Z,67.74
2019-02-21T15:29:43.488Z,67.25
2019-02-21T15:32:50.067Z,67.43
2019-02-21T15:36:00.658Z,67.82
2019-02-21T15:39:09.700Z,68.02
2019-02-21T15:42:16.304Z,67.76
2019-02-21T15:45:24.048Z,68.49
2019-02-21T15:48:31.962Z,68.54
2019-02-21T15:51:39.739Z,67.88
2019-02-21T15:54:46.963Z,67.69
2019-02-21T15:58:03.387Z,67.82
2019-02-21T16:01:24.940Z,67.62
2019-02-21T16:04:35.190Z,68.40
2019-02-21T16:07:41.076Z,68.13
2019-02-21T16:10:48.092Z,68.31
2019-02-21T16:14:03.182Z,67.98
2019-02-21T16:17:04.228Z,69.17
2019-02-21T16:20:12.422Z,68.85
2019-02-21T16:23:19.484Z,69.19
2019-02-21T16:26:26.073Z,69.89
2019-02-21T16:29:32.878Z,70.32
2019-02-21T16:32:39.355Z,70.42
2019-02-21T16:35:46.625Z,70.77
2019-02-21T16:38:53.863Z,70.97
2019-02-21T16:42:00.573Z,71.57
2019-02-21T16:45:08.619Z,71.96
2019-02-21T16:48:15.868Z,72.02
2019-02-21T16:51:23.577Z,73.06
2019-02-21T16:54:30.498Z,73.57
2019-02-21T16:57:37.681Z,73.62
2019-02-21T17:00:53.199Z,73.78
2019-02-21T17:03:53.172Z,74.19
2019-02-21T17:06:59.823Z,74.50
2019-02-21T17:10:07.021Z,74.86
2019-02-21T17:13:14.165Z,75.29
2019-02-21T17:16:20.868Z,75.59
2019-02-21T17:19:27.634Z,75.94
2019-02-21T17:22:34.613Z,75.38
2019-02-21T17:25:41.154Z,75.05
2019-02-21T17:28:48.736Z,75.74
2019-02-21T17:31:57.363Z,75.69
2019-02-21T17:35:04.872Z,75.87
2019-02-21T17:38:11.590Z,75.63
2019-02-21T17:41:20.747Z,75.64
2019-02-21T17:44:28.037Z,74.96
2019-02-21T17:47:35.964Z,74.80
2019-02-21T17:50:43.880Z,75.30
2019-02-21T17:53:52.648Z,75.71
2019-02-21T17:57:00.067Z,75.04
2019-02-21T18:00:09.615Z,75.01
2019-02-21T18:03:16.719Z,74.72
2019-02-21T18:06:23.696Z,74.47
2019-02-21T18:09:31.057Z,74.75
2019-02-21T18:12:37.964Z,74.88
2019-02-21T18:15:44.964Z,75.13
2019-02-21T18:18:51.535Z,75.08
2019-02-21T18:21:58.320Z,75.48
2019-02-21T18:25:05.215Z,75.55
2019-02-21T18:28:12.269Z,75.89
2019-02-21T18:31:23.021Z,76.37
2019-02-21T18:34:31.714Z,76.50
2019-02-21T18:37:46.986Z,76.94
2019-02-21T18:40:46.712Z,77.37
2019-02-21T18:43:54.244Z,77.76
2019-02-21T18:47:01.268Z,77.96
2019-02-21T18:50:08.698Z,78.22
2019-02-21T18:53:15.491Z,78.27
2019-02-21T18:56:22.962Z,78.29
2019-02-21T18:59:31.942Z,78.47
2019-02-21T19:02:39.096Z,78.08
2019-02-21T19:05:46.183Z,78.50
2019-02-21T19:08:53.300Z,78.55
2019-02-21T19:12:00.513Z,78.77
2019-02-21T19:15:07.932Z,78.77
2019-02-21T19:18:15.637Z,78.50
2019-02-21T19:21:22.503Z,78.13
2019-02-21T19:24:30.349Z,77.91
2019-02-21T19:27:37.727Z,78.34
2019-02-21T19:30:52.821Z,77.36
2019-02-21T19:34:01.063Z,77.04
2019-02-21T19:37:09.782Z,76.60
2019-02-21T19:40:16.424Z,76.73
2019-02-21T19:43:23.301Z,76.59
2019-02-21T19:46:31.951Z,76.09
2019-02-21T19:49:38.877Z,76.22
2019-02-21T19:52:45.852Z,75.91
2019-02-21T19:55:53.207Z,75.50
2019-02-21T19:58:59.905Z,75.32
2019-02-21T20:02:07.138Z,75.54
2019-02-21T20:05:14.063Z,75.64
2019-02-21T20:08:21.943Z,75.70
2019-02-21T20:11:30.336Z,75.47
2019-02-21T20:14:37.135Z,75.12
2019-02-21T20:17:43.873Z,75.44
2019-02-21T20:20:51.581Z,75.46
2019-02-21T20:23:58.027Z,75.65
2019-02-21T20:27:05.045Z,75.89
2019-02-21T20:30:14.227Z,75.60
2019-02-21T20:33:22.758Z,75.87
2019-02-21T20:36:30.726Z,75.82
2019-02-21T20:39:37.477Z,75.38
2019-02-21T20:42:44.299Z,75.59
2019-02-21T20:45:53.343Z,75.50
2019-02-21T20:49:00.314Z,75.49
2019-02-21T20:52:07.090Z,75.62
2019-02-21T20:55:13.868Z,75.62
2019-02-21T20:58:20.956Z,75.95
2019-02-21T21:01:28.957Z,76.20
2019-02-21T21:04:36.471Z,75.93
2019-02-21T21:07:43.207Z,76.21
2019-02-21T21:10:50.399Z,76.48
2019-02-21T21:13:57.902Z,75.99
2019-02-21T21:17:04.701Z,75.87
2019-02-21T21:20:16.682Z,75.85
2019-02-21T21:23:20.865Z,75.60
2019-02-21T21:26:27.478Z,75.26
2019-02-21T21:29:34.417Z,75.89
2019-02-21T21:32:41.421Z,75.76
2019-02-21T21:35:49.942Z,75.77
2019-02-21T21:38:59.546Z,75.74
2019-02-21T21:42:08.265Z,75.47
2019-02-21T21:45:16.282Z,75.72
2019-02-21T21:48:23.030Z,75.78
2019-02-21T21:51:30.682Z,75.89
2019-02-21T21:54:37.992Z,75.55
2019-02-21T21:57:45.418Z,75.92
2019-02-21T22:00:51.836Z,76.38
2019-02-21T22:03:58.877Z,76.96
2019-02-21T22:07:05.504Z,76.32
2019-02-21T22:10:12.952Z,77.02
2019-02-21T22:13:20.878Z,76.96
2019-02-21T22:16:30.118Z,77.53
2019-02-21T22:19:36.709Z,77.89
2019-02-21T22:22:43.244Z,78.08
2019-02-21T22:25:50.148Z,78.41
2019-02-21T22:28:57.101Z,78.01
2019-02-21T22:32:03.876Z,78.20
2019-02-21T22:35:10.572Z,78.57
2019-02-21T22:38:17.010Z,78.31
2019-02-21T22:41:23.835Z,77.87
2019-02-21T22:44:30.748Z,78.05
2019-02-21T22:47:38.006Z,77.79
2019-02-21T22:50:44.609Z,78.35
2019-02-21T22:53:51.875Z,78.51
2019-02-21T22:56:58.669Z,78.64
2019-02-21T23:00:25.544Z,78.55
2019-02-21T23:03:46.548Z,77.97
2019-02-21T23:07:26.262Z,77.91
2019-02-21T23:10:32.943Z,78.39
2019-02-21T23:13:40.158Z,79.34
2019-02-21T23:16:46.922Z,80.37
2019-02-21T23:19:54.212Z,81.41
2019-02-21T23:23:00.929Z,82.43
2019-02-21T23:26:07.519Z,83.22
2019-02-21T23:29:14.118Z,84.36
2019-02-21T23:32:20.814Z,84.83
2019-02-21T23:35:27.720Z,85.18
2019-02-21T23:38:34.774Z,84.87
2019-02-21T23:41:42.051Z,86.49
2019-02-21T23:44:48.950Z,86.59
2019-02-21T23:47:56.522Z,87.37
2019-02-21T23:51:03.590Z,87.57
2019-02-21T23:54:10.280Z,88.22
2019-02-21T23:57:17.968Z,87.83
